N1SC KLIT-KMEM
Flight info
| Callsign | N1SC |
|---|---|
| Flight time | 0h 46m |
| Altitude | 9000 |
| Route | LIT UJM MEM |
| Aircraft | AEST/L-DOV/C |
Departure
| Time | 2026-04-23 23:43 |
|---|---|
| Airport | Bill & Hillary Clinton National Airport/Adams Field (KLIT) |
Arrival
| Time | 2026-04-24 00:30 |
|---|---|
| Airport | Memphis International Airport (KMEM) |
| Time | Latitude | Longitude | Altitude | Speed | Heading |
|---|---|---|---|---|---|
| 2026-04-23 23:22 | 34.73455 | -92.24046 | 262 ft | 0 kts | 353° |
| 2026-04-23 23:37 | 34.73485 | -92.24050 | 262 ft | 6 kts | 15° |
| 2026-04-23 23:37 | 34.73488 | -92.24043 | 262 ft | 1 kts | 135° |
| 2026-04-23 23:37 | 34.73461 | -92.24014 | 262 ft | 1 kts | 131° |
| 2026-04-23 23:38 | 34.73460 | -92.24013 | 262 ft | 0 kts | 131° |
| 2026-04-23 23:38 | 34.73486 | -92.23968 | 262 ft | 17 kts | 360° |
| 2026-04-23 23:39 | 34.73639 | -92.23958 | 262 ft | 26 kts | 2° |
| 2026-04-23 23:39 | 34.73836 | -92.23950 | 262 ft | 17 kts | 1° |
| 2026-04-23 23:39 | 34.73899 | -92.23948 | 262 ft | 10 kts | 1° |
| 2026-04-23 23:39 | 34.73964 | -92.23923 | 262 ft | 11 kts | 59° |
| 2026-04-23 23:40 | 34.73968 | -92.23912 | 262 ft | 0 kts | 69° |
| 2026-04-23 23:40 | 34.73969 | -92.23910 | 262 ft | 0 kts | 69° |
| 2026-04-23 23:42 | 34.73971 | -92.23902 | 262 ft | 7 kts | 82° |
| 2026-04-23 23:42 | 34.73974 | -92.23826 | 262 ft | 7 kts | 89° |
| 2026-04-23 23:42 | 34.73902 | -92.23814 | 261 ft | 28 kts | 181° |
| 2026-04-23 23:42 | 34.73451 | -92.23828 | 273 ft | 90 kts | 182° |
| 2026-04-23 23:43 | 34.72782 | -92.23852 | 459 ft | 100 kts | 181° |
| 2026-04-23 23:43 | 34.72075 | -92.23841 | 769 ft | 102 kts | 179° |
| 2026-04-23 23:43 | 34.71402 | -92.23672 | 1323 ft | 94 kts | 165° |
| 2026-04-23 23:43 | 34.70757 | -92.23493 | 1720 ft | 102 kts | 173° |
| 2026-04-23 23:44 | 34.70008 | -92.23340 | 2028 ft | 109 kts | 173° |
| 2026-04-23 23:44 | 34.69275 | -92.23223 | 2406 ft | 107 kts | 176° |
| 2026-04-23 23:44 | 34.68507 | -92.23202 | 2693 ft | 112 kts | 182° |
| 2026-04-23 23:44 | 34.67998 | -92.23247 | 2957 ft | 110 kts | 185° |
| 2026-04-23 23:45 | 34.67243 | -92.23322 | 3331 ft | 108 kts | 183° |
| 2026-04-23 23:45 | 34.66479 | -92.23349 | 3633 ft | 112 kts | 182° |
| 2026-04-23 23:45 | 34.65444 | -92.23320 | 4082 ft | 109 kts | 177° |
| 2026-04-23 23:45 | 34.64948 | -92.23182 | 4277 ft | 114 kts | 159° |
| 2026-04-23 23:46 | 34.64348 | -92.22471 | 4518 ft | 126 kts | 126° |
| 2026-04-23 23:46 | 34.64094 | -92.21465 | 4942 ft | 127 kts | 111° |
| 2026-04-23 23:46 | 34.63919 | -92.20375 | 5192 ft | 136 kts | 108° |
| 2026-04-23 23:46 | 34.63764 | -92.19245 | 5573 ft | 132 kts | 109° |
| 2026-04-23 23:47 | 34.63607 | -92.18155 | 5939 ft | 132 kts | 110° |
| 2026-04-23 23:47 | 34.63468 | -92.17012 | 6185 ft | 140 kts | 100° |
| 2026-04-23 23:47 | 34.63570 | -92.15815 | 6476 ft | 145 kts | 87° |
| 2026-04-23 23:47 | 34.63723 | -92.14622 | 6811 ft | 142 kts | 90° |
| 2026-04-23 23:48 | 34.63851 | -92.13426 | 7039 ft | 149 kts | 90° |
| 2026-04-23 23:48 | 34.63939 | -92.12144 | 7317 ft | 154 kts | 91° |
| 2026-04-23 23:48 | 34.64032 | -92.10849 | 7639 ft | 156 kts | 89° |
| 2026-04-23 23:48 | 34.64137 | -92.09519 | 7944 ft | 159 kts | 89° |
| 2026-04-23 23:49 | 34.64343 | -92.06800 | 8508 ft | 165 kts | 89° |
| 2026-04-23 23:49 | 34.64434 | -92.05402 | 8791 ft | 166 kts | 89° |
| 2026-04-23 23:49 | 34.64509 | -92.03972 | 8956 ft | 176 kts | 89° |
| 2026-04-23 23:50 | 34.64583 | -92.02453 | 9072 ft | 187 kts | 90° |
| 2026-04-23 23:50 | 34.64662 | -92.00812 | 9051 ft | 201 kts | 90° |
| 2026-04-23 23:50 | 34.64735 | -91.99070 | 9007 ft | 211 kts | 90° |
| 2026-04-23 23:50 | 34.64806 | -91.97268 | 8997 ft | 216 kts | 89° |
| 2026-04-23 23:51 | 34.64882 | -91.95442 | 9000 ft | 221 kts | 89° |
| 2026-04-23 23:51 | 34.64971 | -91.93533 | 9001 ft | 224 kts | 89° |
| 2026-04-23 23:51 | 34.65054 | -91.91642 | 8998 ft | 225 kts | 89° |
| 2026-04-23 23:51 | 34.65131 | -91.89747 | 8992 ft | 224 kts | 89° |
| 2026-04-23 23:52 | 34.65222 | -91.87862 | 9001 ft | 224 kts | 89° |
| 2026-04-23 23:52 | 34.65322 | -91.85974 | 9008 ft | 224 kts | 89° |
| 2026-04-23 23:52 | 34.65416 | -91.84077 | 9011 ft | 224 kts | 89° |
| 2026-04-23 23:52 | 34.65497 | -91.82211 | 9007 ft | 225 kts | 89° |
| 2026-04-23 23:53 | 34.65590 | -91.80314 | 9003 ft | 226 kts | 89° |
| 2026-04-23 23:53 | 34.65685 | -91.78410 | 9009 ft | 225 kts | 89° |
| 2026-04-23 23:53 | 34.65782 | -91.76503 | 9007 ft | 225 kts | 89° |
| 2026-04-23 23:53 | 34.65877 | -91.74606 | 9009 ft | 226 kts | 89° |
| 2026-04-23 23:54 | 34.65978 | -91.72704 | 9011 ft | 226 kts | 89° |
| 2026-04-23 23:54 | 34.66095 | -91.70797 | 9011 ft | 225 kts | 89° |
| 2026-04-23 23:54 | 34.66207 | -91.68899 | 9015 ft | 225 kts | 89° |
| 2026-04-23 23:54 | 34.66319 | -91.66995 | 9012 ft | 225 kts | 89° |
| 2026-04-23 23:55 | 34.66432 | -91.65089 | 9012 ft | 226 kts | 89° |
| 2026-04-23 23:55 | 34.66548 | -91.63191 | 9010 ft | 225 kts | 89° |
| 2026-04-23 23:55 | 34.66660 | -91.61330 | 9011 ft | 224 kts | 89° |
| 2026-04-23 23:55 | 34.66676 | -91.59414 | 9008 ft | 225 kts | 97° |
| 2026-04-23 23:56 | 34.66544 | -91.57546 | 9013 ft | 224 kts | 98° |
| 2026-04-23 23:56 | 34.66395 | -91.55660 | 9015 ft | 224 kts | 98° |
| 2026-04-23 23:56 | 34.66243 | -91.53773 | 9009 ft | 223 kts | 98° |
| 2026-04-23 23:56 | 34.66083 | -91.51897 | 9010 ft | 225 kts | 98° |
| 2026-04-23 23:57 | 34.65934 | -91.49999 | 9011 ft | 227 kts | 98° |
| 2026-04-23 23:57 | 34.65792 | -91.48081 | 9016 ft | 228 kts | 98° |
| 2026-04-23 23:57 | 34.65655 | -91.46165 | 9010 ft | 227 kts | 98° |
| 2026-04-23 23:57 | 34.65511 | -91.44260 | 9007 ft | 226 kts | 98° |
| 2026-04-23 23:58 | 34.65412 | -91.42356 | 9005 ft | 227 kts | 92° |
| 2026-04-23 23:58 | 34.65465 | -91.40436 | 9013 ft | 229 kts | 90° |
| 2026-04-23 23:58 | 34.65529 | -91.38506 | 9012 ft | 228 kts | 91° |
| 2026-04-23 23:58 | 34.65565 | -91.36579 | 9008 ft | 227 kts | 91° |
| 2026-04-23 23:59 | 34.65572 | -91.34686 | 9007 ft | 227 kts | 93° |
| 2026-04-23 23:59 | 34.65530 | -91.32771 | 9010 ft | 227 kts | 95° |
| 2026-04-23 23:59 | 34.65435 | -91.30853 | 9010 ft | 227 kts | 97° |
| 2026-04-23 23:59 | 34.65284 | -91.28950 | 9005 ft | 226 kts | 99° |
| 2026-04-24 00:00 | 34.65070 | -91.27061 | 9001 ft | 226 kts | 101° |
| 2026-04-24 00:00 | 34.64822 | -91.25176 | 9001 ft | 226 kts | 103° |
| 2026-04-24 00:00 | 34.64546 | -91.23288 | 9004 ft | 228 kts | 104° |
| 2026-04-24 00:00 | 34.64246 | -91.21399 | 8998 ft | 226 kts | 105° |
| 2026-04-24 00:01 | 34.63923 | -91.19528 | 9002 ft | 226 kts | 105° |
| 2026-04-24 00:01 | 34.63583 | -91.17677 | 9003 ft | 224 kts | 105° |
| 2026-04-24 00:01 | 34.63245 | -91.15822 | 9005 ft | 225 kts | 105° |
| 2026-04-24 00:01 | 34.62916 | -91.13960 | 8999 ft | 227 kts | 105° |
| 2026-04-24 00:02 | 34.62624 | -91.12072 | 9002 ft | 228 kts | 104° |
| 2026-04-24 00:02 | 34.62352 | -91.10178 | 9003 ft | 228 kts | 103° |
| 2026-04-24 00:02 | 34.62102 | -91.08275 | 9008 ft | 228 kts | 102° |
| 2026-04-24 00:02 | 34.61868 | -91.06382 | 9004 ft | 228 kts | 101° |
| 2026-04-24 00:03 | 34.61655 | -91.04470 | 9004 ft | 228 kts | 101° |
| 2026-04-24 00:03 | 34.61463 | -91.02571 | 9004 ft | 229 kts | 100° |
| 2026-04-24 00:03 | 34.61274 | -91.00649 | 9007 ft | 229 kts | 100° |
| 2026-04-24 00:03 | 34.61090 | -90.98729 | 9008 ft | 228 kts | 100° |
| 2026-04-24 00:04 | 34.60904 | -90.96812 | 9006 ft | 229 kts | 100° |
| 2026-04-24 00:04 | 34.60708 | -90.94896 | 9006 ft | 230 kts | 101° |
| 2026-04-24 00:04 | 34.60510 | -90.92966 | 9005 ft | 230 kts | 101° |
| 2026-04-24 00:04 | 34.60294 | -90.91052 | 9001 ft | 229 kts | 102° |
| 2026-04-24 00:05 | 34.60064 | -90.89137 | 9004 ft | 229 kts | 102° |
| 2026-04-24 00:05 | 34.59827 | -90.87231 | 9008 ft | 229 kts | 102° |
| 2026-04-24 00:05 | 34.59593 | -90.85312 | 9002 ft | 229 kts | 102° |
| 2026-04-24 00:05 | 34.59370 | -90.83397 | 9002 ft | 230 kts | 102° |
| 2026-04-24 00:06 | 34.59141 | -90.81481 | 9007 ft | 229 kts | 102° |
| 2026-04-24 00:06 | 34.58912 | -90.79592 | 8999 ft | 229 kts | 102° |
| 2026-04-24 00:06 | 34.58683 | -90.77673 | 9000 ft | 230 kts | 101° |
| 2026-04-24 00:06 | 34.58471 | -90.75749 | 9000 ft | 230 kts | 102° |
| 2026-04-24 00:07 | 34.58249 | -90.73819 | 9003 ft | 232 kts | 102° |
| 2026-04-24 00:07 | 34.57982 | -90.71894 | 9024 ft | 231 kts | 103° |
| 2026-04-24 00:07 | 34.57696 | -90.69978 | 9032 ft | 230 kts | 104° |
| 2026-04-24 00:07 | 34.57405 | -90.68065 | 9031 ft | 231 kts | 104° |
| 2026-04-24 00:08 | 34.57206 | -90.66129 | 9010 ft | 232 kts | 93° |
| 2026-04-24 00:08 | 34.57413 | -90.64185 | 9026 ft | 233 kts | 77° |
| 2026-04-24 00:08 | 34.58020 | -90.62384 | 9045 ft | 233 kts | 62° |
| 2026-04-24 00:08 | 34.59002 | -90.60793 | 9043 ft | 234 kts | 46° |
| 2026-04-24 00:09 | 34.60272 | -90.59531 | 9029 ft | 237 kts | 33° |
| 2026-04-24 00:09 | 34.61638 | -90.58425 | 9034 ft | 236 kts | 32° |
| 2026-04-24 00:09 | 34.62945 | -90.57263 | 9029 ft | 237 kts | 38° |
| 2026-04-24 00:09 | 34.64211 | -90.55977 | 9016 ft | 237 kts | 39° |
| 2026-04-24 00:10 | 34.65476 | -90.54685 | 9024 ft | 238 kts | 39° |
| 2026-04-24 00:10 | 34.66741 | -90.53395 | 9031 ft | 237 kts | 39° |
| 2026-04-24 00:10 | 34.68004 | -90.52108 | 9035 ft | 237 kts | 39° |
| 2026-04-24 00:10 | 34.69273 | -90.50814 | 9028 ft | 238 kts | 39° |
| 2026-04-24 00:11 | 34.70544 | -90.49520 | 9028 ft | 238 kts | 39° |
| 2026-04-24 00:11 | 34.71814 | -90.48229 | 9034 ft | 238 kts | 39° |
| 2026-04-24 00:11 | 34.73084 | -90.46942 | 9032 ft | 237 kts | 39° |
| 2026-04-24 00:11 | 34.74358 | -90.45657 | 9033 ft | 238 kts | 39° |
| 2026-04-24 00:12 | 34.75634 | -90.44384 | 9031 ft | 237 kts | 39° |
| 2026-04-24 00:12 | 34.76913 | -90.43114 | 9033 ft | 238 kts | 39° |
| 2026-04-24 00:12 | 34.78195 | -90.41842 | 9038 ft | 237 kts | 39° |
| 2026-04-24 00:12 | 34.79470 | -90.40580 | 9030 ft | 237 kts | 39° |
| 2026-04-24 00:13 | 34.80749 | -90.39311 | 9038 ft | 237 kts | 38° |
| 2026-04-24 00:13 | 34.82026 | -90.38052 | 9025 ft | 237 kts | 38° |
| 2026-04-24 00:13 | 34.83304 | -90.36786 | 9027 ft | 236 kts | 38° |
| 2026-04-24 00:13 | 34.84576 | -90.35525 | 9024 ft | 236 kts | 38° |
| 2026-04-24 00:14 | 34.85839 | -90.34263 | 9035 ft | 235 kts | 38° |
| 2026-04-24 00:14 | 34.87109 | -90.32997 | 9032 ft | 236 kts | 38° |
| 2026-04-24 00:14 | 34.88375 | -90.31733 | 9037 ft | 235 kts | 38° |
| 2026-04-24 00:14 | 34.89643 | -90.30465 | 9037 ft | 236 kts | 38° |
| 2026-04-24 00:15 | 34.90895 | -90.29214 | 9025 ft | 236 kts | 38° |
| 2026-04-24 00:15 | 34.92180 | -90.27934 | 9028 ft | 236 kts | 38° |
| 2026-04-24 00:15 | 34.93434 | -90.26682 | 9033 ft | 236 kts | 38° |
| 2026-04-24 00:15 | 34.94738 | -90.25471 | 9025 ft | 236 kts | 27° |
| 2026-04-24 00:16 | 34.96246 | -90.24675 | 8937 ft | 238 kts | 19° |
| 2026-04-24 00:16 | 34.97824 | -90.23957 | 8750 ft | 244 kts | 18° |
| 2026-04-24 00:16 | 34.99435 | -90.23240 | 8570 ft | 249 kts | 18° |
| 2026-04-24 00:16 | 35.01077 | -90.22525 | 8384 ft | 252 kts | 18° |
| 2026-04-24 00:17 | 35.02746 | -90.21810 | 8195 ft | 255 kts | 18° |
| 2026-04-24 00:17 | 35.04395 | -90.21110 | 8009 ft | 248 kts | 18° |
| 2026-04-24 00:17 | 35.06020 | -90.20421 | 7778 ft | 247 kts | 18° |
| 2026-04-24 00:17 | 35.07638 | -90.19740 | 7540 ft | 245 kts | 18° |
| 2026-04-24 00:18 | 35.09256 | -90.19064 | 7301 ft | 245 kts | 18° |
| 2026-04-24 00:18 | 35.10873 | -90.18393 | 7068 ft | 245 kts | 18° |
| 2026-04-24 00:18 | 35.12496 | -90.17723 | 6837 ft | 246 kts | 18° |
| 2026-04-24 00:18 | 35.14123 | -90.17058 | 6612 ft | 247 kts | 17° |
| 2026-04-24 00:19 | 35.15760 | -90.16402 | 6380 ft | 248 kts | 17° |
| 2026-04-24 00:19 | 35.17407 | -90.15748 | 6153 ft | 248 kts | 17° |
| 2026-04-24 00:19 | 35.19049 | -90.15107 | 6020 ft | 245 kts | 17° |
| 2026-04-24 00:19 | 35.20666 | -90.14477 | 5862 ft | 243 kts | 17° |
| 2026-04-24 00:20 | 35.22255 | -90.13858 | 5701 ft | 242 kts | 17° |
| 2026-04-24 00:20 | 35.23866 | -90.13238 | 5539 ft | 242 kts | 17° |
| 2026-04-24 00:20 | 35.25484 | -90.12620 | 5384 ft | 243 kts | 17° |
| 2026-04-24 00:20 | 35.27090 | -90.12012 | 5233 ft | 243 kts | 17° |
| 2026-04-24 00:21 | 35.28699 | -90.11408 | 5072 ft | 241 kts | 17° |
| 2026-04-24 00:21 | 35.30204 | -90.10541 | 4905 ft | 240 kts | 40° |
| 2026-04-24 00:21 | 35.31224 | -90.08978 | 4787 ft | 233 kts | 69° |
| 2026-04-24 00:21 | 35.31558 | -90.07093 | 4711 ft | 223 kts | 97° |
| 2026-04-24 00:22 | 35.31182 | -90.05313 | 4654 ft | 212 kts | 124° |
| 2026-04-24 00:22 | 35.30345 | -90.03867 | 4534 ft | 206 kts | 134° |
| 2026-04-24 00:22 | 35.29452 | -90.02506 | 4385 ft | 205 kts | 134° |
| 2026-04-24 00:22 | 35.28552 | -90.01157 | 4252 ft | 204 kts | 135° |
| 2026-04-24 00:23 | 35.27553 | -89.99972 | 4163 ft | 202 kts | 154° |
| 2026-04-24 00:23 | 35.26261 | -89.99371 | 4053 ft | 198 kts | 167° |
| 2026-04-24 00:23 | 35.24924 | -89.98930 | 3882 ft | 200 kts | 167° |
| 2026-04-24 00:23 | 35.23587 | -89.98465 | 3673 ft | 193 kts | 163° |
| 2026-04-24 00:24 | 35.22347 | -89.97938 | 3365 ft | 187 kts | 167° |
| 2026-04-24 00:24 | 35.21111 | -89.97753 | 3210 ft | 175 kts | 181° |
| 2026-04-24 00:24 | 35.19940 | -89.97719 | 3109 ft | 164 kts | 175° |
| 2026-04-24 00:24 | 35.18825 | -89.97576 | 2959 ft | 158 kts | 175° |
| 2026-04-24 00:25 | 35.17755 | -89.97469 | 2755 ft | 148 kts | 178° |
| 2026-04-24 00:25 | 35.16783 | -89.97439 | 2586 ft | 132 kts | 181° |
| 2026-04-24 00:25 | 35.15916 | -89.97460 | 2441 ft | 112 kts | 183° |
| 2026-04-24 00:25 | 35.15204 | -89.97504 | 2230 ft | 99 kts | 183° |
| 2026-04-24 00:26 | 35.14523 | -89.97525 | 2069 ft | 97 kts | 180° |
| 2026-04-24 00:26 | 35.13852 | -89.97502 | 1942 ft | 94 kts | 178° |
| 2026-04-24 00:26 | 35.13212 | -89.97488 | 1794 ft | 92 kts | 179° |
| 2026-04-24 00:26 | 35.12548 | -89.97471 | 1703 ft | 95 kts | 177° |
| 2026-04-24 00:27 | 35.11881 | -89.97409 | 1549 ft | 98 kts | 175° |
| 2026-04-24 00:27 | 35.11221 | -89.97334 | 1448 ft | 92 kts | 177° |
| 2026-04-24 00:27 | 35.10573 | -89.97347 | 1342 ft | 95 kts | 181° |
| 2026-04-24 00:27 | 35.09920 | -89.97403 | 1270 ft | 94 kts | 180° |
| 2026-04-24 00:28 | 35.09268 | -89.97374 | 1193 ft | 92 kts | 177° |
| 2026-04-24 00:28 | 35.08653 | -89.97321 | 1127 ft | 91 kts | 179° |
| 2026-04-24 00:28 | 35.08013 | -89.97318 | 1039 ft | 91 kts | 183° |
| 2026-04-24 00:28 | 35.07378 | -89.97346 | 875 ft | 92 kts | 179° |
| 2026-04-24 00:29 | 35.06748 | -89.97310 | 729 ft | 90 kts | 179° |
| 2026-04-24 00:29 | 35.06106 | -89.97298 | 599 ft | 95 kts | 179° |
| 2026-04-24 00:29 | 35.05454 | -89.97297 | 501 ft | 92 kts | 180° |
| 2026-04-24 00:29 | 35.04863 | -89.97293 | 338 ft | 85 kts | 177° |
| 2026-04-24 00:30 | 35.04405 | -89.97284 | 313 ft | 35 kts | 179° |
| 2026-04-24 00:30 | 35.04352 | -89.97239 | 310 ft | 11 kts | 29° |
| 2026-04-24 00:30 | 35.04400 | -89.97210 | 311 ft | 10 kts | 29° |
| 2026-04-24 00:30 | 35.04431 | -89.97181 | 312 ft | 9 kts | 41° |
| 2026-04-24 00:31 | 35.04517 | -89.97100 | 312 ft | 18 kts | 22° |